Portland Hillsboro Airport Portland US
ICAO: KHIO
IATA: HIO
Category: Medium
Scheduled Services: No

Elevation: 208 ft
TransAlt. 18000 ft.

Airport Communications:
APP/DEP:126
ATIS:127.65
CTAF:119.3
GND:121.7
HILLSBORO TWR:119.3
UNICOM:122.95

KHIO Zoom In..

If you have problems with the map follow the link
https://www.worldairports.se/pages/airport.php?
ICAO=KHIO

Runways:

(A) RW 02 length 4050 ft width 100 ft
---- / hdg 23

(B) RW 13 length 6600 ft width 150 ft
ILS 110.70 / hdg 127

(C) RW 20 length 4050 ft width 100 ft
---- / hdg 203

(D) RW 31 length 6600 ft width 150 ft
---- / hdg 307

Location; KHIO
Day. 16 / Time. 01.53 Zulu
* Altimeter: 30.28
* Temperature: 03° c. 37.4°f.
* Wind from: 000° Speed 00 kn.
Dewpoint: 02° c.
Visibility: 5 Statute Miles.
Clouds: Scattered 1100 ft.
Conditions: Mist.

KHIO 160153Z 00000KT 5SM BR SCT011 03/02 A3028 RMK AO2 SLP256 T00280017


Wind - Calm.

 
 
jpsmedia worldairports.se 2019   terms of use